Home   Weather   Huntingfield   Past weeks
Flag for United Kingdom

Past Weather in Huntingfield, England, United Kingdom — Yesterday and Last 2 Weeks

Currently: 90 °F. Passing clouds. (Weather station: Norwich Weather Centre, United Kingdom). See more current weather

Past Weather in Huntingfield — Graph

°F

Huntingfield Temperature Yesterday

Maximum temperature yesterday: 82 °F (at 12:20 pm)
Minimum temperature yesterday: 59 °F (at 2:20 am)
Average temperature yesterday: 71 °F

High & Low Weather Summary for the Past Weeks

 TemperatureHumidityPressure
High90 °F (Aug 13, 12:50 pm)100% (Aug 9, 3:20 am)30.45 "Hg (Aug 9, 3:20 am)
Low50 °F (Aug 6, 3:20 am)27% (Aug 13, 12:50 pm)29.86 "Hg (Aug 3, 3:20 am)
Average68 °F70%30.14 "Hg
* Reported Jul 29 12:20 pm — Aug 13 12:50 pm, Huntingfield. Weather by CustomWeather, © 2022

Note: Actual official high and low records may vary slightly from our data, if they occured in-between our weather recording intervals... More about our weather records

Huntingfield Weather History for the Previous 24 Hours

Scroll right to see more
 ConditionsComfort  
Time TempWeatherWind HumidityBarometerVisibility
12:50 pm
Sat, Aug 13
90 °FPassing clouds.14 mph27%30.01 "HgN/A
12:20 pm86 °FPassing clouds.13 mph29%30.01 "HgN/A
11:50 am86 °FPassing clouds.12 mph35%30.01 "HgN/A
11:20 am84 °FPassing clouds.9 mph37%30.01 "HgN/A
10:50 am82 °FPassing clouds.8 mph45%30.01 "HgN/A
10:20 am81 °FPassing clouds.9 mph51%30.01 "HgN/A
9:50 am79 °FSunny.8 mph58%30.01 "Hg10 mi
9:20 am77 °FPassing clouds.7 mph65%30.01 "HgN/A
8:50 am73 °FPassing clouds.7 mph78%30.01 "HgN/A
8:20 am72 °FSunny.7 mph83%30.01 "Hg10 mi
7:50 am68 °FPassing clouds.6 mph88%30.01 "HgN/A
7:20 am66 °FClear.6 mph94%30.01 "Hg6 mi
6:50 am64 °FHaze.5 mph94%30.01 "Hg3 mi
6:20 am63 °FFog.5 mph94%30.04 "Hg3 mi
5:50 am63 °FFog.5 mph94%30.04 "Hg4 mi
5:20 am63 °FHaze.7 mph94%30.04 "Hg3 mi
4:50 am63 °FHaze.5 mph94%30.04 "Hg2 mi
4:20 am63 °FHaze.3 mph94%30.04 "Hg3 mi
3:50 am63 °FMild.5 mph94%30.04 "Hg5 mi
3:20 am63 °FMild.5 mph94%30.04 "Hg4 mi
2:50 am63 °FMild.5 mph94%30.04 "Hg5 mi
2:20 am63 °FMild.5 mph94%30.04 "HgN/A
1:50 am63 °FMild.5 mph94%30.07 "Hg4 mi
12:20 am64 °FMild.6 mph88%30.07 "Hg6 mi
11:50 pm
Fri, Aug 12
64 °FMild.5 mph88%30.07 "HgN/A
11:20 pm64 °FMild.3 mph94%30.07 "HgN/A
10:50 pm64 °FMild.5 mph94%30.09 "HgN/A
10:20 pm64 °FMild.6 mph94%30.09 "HgN/A
9:50 pm66 °FMild.6 mph88%30.09 "HgN/A
9:20 pm66 °FMild.6 mph88%30.09 "HgN/A
8:20 pm68 °FSunny.8 mph83%30.07 "Hg10 mi
7:50 pm72 °FSunny.8 mph73%30.07 "Hg10 mi
7:20 pm73 °FPassing clouds.9 mph69%30.07 "HgN/A
6:50 pm75 °FPassing clouds.9 mph61%30.07 "HgN/A
6:20 pm77 °FSunny.10 mph54%30.07 "Hg10 mi
5:50 pm79 °FPassing clouds.10 mph51%30.07 "HgN/A
5:20 pm79 °FPassing clouds.10 mph51%30.09 "HgN/A
4:50 pm81 °FSunny.13 mph45%30.09 "Hg10 mi
4:20 pm81 °FPassing clouds.13 mph45%30.09 "HgN/A
3:50 pm82 °FPassing clouds.14 mph42%30.09 "HgN/A
3:20 pm81 °FPassing clouds.15 mph48%30.09 "HgN/A
2:20 pm82 °FPassing clouds.14 mph45%30.09 "HgN/A
1:50 pm82 °FPassing clouds.13 mph45%30.12 "HgN/A
1:20 pm82 °FPassing clouds.13 mph45%30.12 "HgN/A
Weather by CustomWeather, © 2022

See weather overview